createdAt,value
2023-02-08T00:01:19.426Z,83.54
2023-02-08T00:03:47.372Z,83.70
2023-02-08T00:06:15.330Z,83.54
2023-02-08T00:08:43.008Z,83.33
2023-02-08T00:11:11.284Z,83.73
2023-02-08T00:13:41.649Z,83.85
2023-02-08T00:16:09.694Z,83.74
2023-02-08T00:18:37.309Z,83.15
2023-02-08T00:21:04.967Z,83.57
2023-02-08T00:23:32.664Z,83.26
2023-02-08T00:26:00.886Z,83.58
2023-02-08T00:28:28.905Z,84.00
2023-02-08T00:30:56.682Z,83.45
2023-02-08T00:33:24.317Z,83.56
2023-02-08T00:35:51.971Z,83.92
2023-02-08T00:38:20.131Z,83.41
2023-02-08T00:40:47.740Z,84.19
2023-02-08T00:43:15.367Z,83.34
2023-02-08T00:45:42.984Z,83.42
2023-02-08T00:48:10.586Z,83.35
2023-02-08T00:50:40.115Z,83.54
2023-02-08T00:53:07.852Z,83.85
2023-02-08T00:55:35.474Z,83.93
2023-02-08T00:58:03.112Z,83.41
2023-02-08T01:00:30.739Z,83.68
2023-02-08T01:02:58.327Z,83.75
2023-02-08T01:05:25.975Z,83.78
2023-02-08T01:07:53.566Z,83.66
2023-02-08T01:10:21.167Z,83.76
2023-02-08T01:12:49.106Z,84.15
2023-02-08T01:15:16.708Z,84.09
2023-02-08T01:17:44.267Z,84.02
2023-02-08T01:20:11.903Z,83.83
2023-02-08T01:22:39.524Z,83.93
2023-02-08T01:25:07.167Z,84.20
2023-02-08T01:27:35.140Z,84.00
2023-02-08T01:30:02.775Z,83.89
2023-02-08T01:32:30.365Z,84.04
2023-02-08T01:34:57.989Z,83.42
2023-02-08T01:37:25.616Z,83.92
2023-02-08T01:39:53.828Z,84.23
2023-02-08T01:42:21.455Z,83.73
2023-02-08T01:44:49.041Z,83.60
2023-02-08T01:47:16.642Z,83.72
2023-02-08T01:49:44.250Z,84.03
2023-02-08T01:52:12.142Z,83.52
2023-02-08T01:54:40.752Z,83.79
2023-02-08T01:57:08.663Z,84.14
2023-02-08T01:59:36.267Z,83.78
2023-02-08T02:02:03.854Z,83.97
2023-02-08T02:04:32.035Z,84.41
2023-02-08T02:06:59.681Z,83.60
2023-02-08T02:09:27.256Z,83.89
2023-02-08T02:11:54.861Z,83.78
2023-02-08T02:14:22.410Z,83.54
2023-02-08T02:16:50.187Z,83.46
2023-02-08T02:19:18.159Z,83.85
2023-02-08T02:21:45.714Z,83.83
2023-02-08T02:24:13.269Z,84.25
2023-02-08T02:26:40.916Z,83.71
2023-02-08T02:29:08.781Z,83.48
2023-02-08T02:31:36.950Z,83.61
2023-02-08T02:34:04.546Z,83.71
2023-02-08T02:36:32.731Z,83.68
2023-02-08T02:39:02.814Z,83.66
2023-02-08T02:41:50.782Z,83.55
2023-02-08T02:44:18.550Z,83.90
2023-02-08T02:46:46.159Z,84.33
2023-02-08T02:49:13.770Z,84.07
2023-02-08T02:51:41.392Z,84.03
2023-02-08T02:54:08.955Z,84.09
2023-02-08T02:56:36.719Z,84.23
2023-02-08T02:59:04.292Z,84.07
2023-02-08T03:01:31.897Z,83.88
2023-02-08T03:03:59.601Z,84.23
2023-02-08T03:06:27.237Z,83.46
2023-02-08T03:08:55.673Z,84.34
2023-02-08T03:11:23.239Z,83.51
2023-02-08T03:13:50.790Z,84.26
2023-02-08T03:16:18.439Z,84.13
2023-02-08T03:18:46.263Z,83.41
2023-02-08T03:21:13.843Z,83.84
2023-02-08T03:23:41.716Z,83.92
2023-02-08T03:26:09.379Z,84.12
2023-02-08T03:28:36.964Z,83.47
2023-02-08T03:31:04.796Z,83.29
2023-02-08T03:33:32.644Z,84.06
2023-02-08T03:36:00.231Z,83.67
2023-02-08T03:38:27.828Z,83.84
2023-02-08T03:40:55.438Z,83.99
2023-02-08T03:43:23.389Z,84.08
2023-02-08T03:45:52.176Z,84.10
2023-02-08T03:48:19.827Z,83.95
2023-02-08T03:50:47.456Z,84.08
2023-02-08T03:53:15.047Z,83.94
2023-02-08T03:55:43.020Z,83.91
2023-02-08T03:58:10.589Z,84.29
2023-02-08T04:00:38.194Z,83.68
2023-02-08T04:03:05.892Z,84.17
2023-02-08T04:05:33.455Z,83.79
2023-02-08T04:08:01.708Z,84.29
2023-02-08T04:10:29.525Z,83.74
2023-02-08T04:12:57.121Z,83.71
2023-02-08T04:15:27.421Z,83.98
2023-02-08T04:17:55.018Z,83.98
2023-02-08T04:20:22.965Z,83.45
2023-02-08T04:22:50.707Z,83.85
2023-02-08T04:25:18.888Z,84.24
2023-02-08T04:27:46.458Z,84.06
2023-02-08T04:30:14.337Z,84.40
2023-02-08T04:32:42.305Z,83.91
2023-02-08T04:35:09.899Z,83.93
2023-02-08T04:37:37.488Z,84.02
2023-02-08T04:40:05.108Z,84.23
2023-02-08T04:42:32.689Z,84.17
2023-02-08T04:45:00.734Z,84.31
2023-02-08T04:47:28.411Z,83.94
2023-02-08T04:49:56.041Z,84.11
2023-02-08T04:52:23.935Z,83.74
2023-02-08T04:54:51.586Z,84.26
2023-02-08T04:57:19.171Z,84.69
2023-02-08T04:59:46.933Z,83.87
2023-02-08T05:02:14.548Z,83.88
2023-02-08T05:04:42.201Z,84.34
2023-02-08T05:07:09.835Z,83.72
2023-02-08T05:09:37.778Z,84.12
2023-02-08T05:12:05.409Z,83.92
2023-02-08T05:14:33.295Z,84.08
2023-02-08T05:17:00.909Z,83.88
2023-02-08T05:19:28.582Z,83.95
2023-02-08T05:21:56.592Z,83.97
2023-02-08T05:24:24.412Z,84.15
2023-02-08T05:26:52.268Z,84.37
2023-02-08T05:29:19.855Z,84.57
2023-02-08T05:31:47.667Z,84.50
2023-02-08T05:34:15.739Z,84.22
2023-02-08T05:36:44.708Z,84.39
2023-02-08T05:39:12.401Z,84.48
2023-02-08T05:41:40.057Z,83.97
2023-02-08T05:44:07.648Z,84.30
2023-02-08T05:46:38.084Z,84.22
2023-02-08T05:49:06.149Z,84.27
2023-02-08T05:51:33.883Z,84.11
2023-02-08T05:54:01.619Z,84.13
2023-02-08T05:56:29.842Z,83.86
2023-02-08T05:58:57.784Z,83.90
2023-02-08T06:01:25.749Z,83.69
2023-02-08T06:03:54.212Z,84.16
2023-02-08T06:06:21.842Z,83.58
2023-02-08T06:08:49.580Z,84.26
2023-02-08T06:11:17.579Z,84.14
2023-02-08T06:13:46.121Z,84.12
2023-02-08T06:16:13.829Z,84.24
2023-02-08T06:18:41.496Z,84.70
2023-02-08T06:21:09.817Z,84.00
2023-02-08T06:23:38.322Z,84.38
2023-02-08T06:26:06.146Z,84.23
2023-02-08T06:28:33.776Z,84.62
2023-02-08T06:31:01.479Z,83.84
2023-02-08T06:33:29.412Z,84.43
2023-02-08T06:35:57.541Z,84.02
2023-02-08T06:38:25.438Z,84.13
2023-02-08T06:40:53.113Z,83.68
2023-02-08T06:43:21.236Z,83.88
2023-02-08T06:45:48.959Z,83.96
2023-02-08T06:48:16.972Z,84.33
2023-02-08T06:50:44.824Z,83.69
2023-02-08T06:53:12.545Z,83.56
2023-02-08T06:55:40.138Z,83.73
2023-02-08T06:58:07.816Z,83.68
2023-02-08T07:00:35.688Z,83.81
2023-02-08T07:03:03.401Z,83.51
2023-02-08T07:05:31.013Z,83.37
2023-02-08T07:07:58.675Z,83.54
2023-02-08T07:10:26.341Z,82.99
2023-02-08T07:12:54.383Z,83.76
2023-02-08T07:15:22.241Z,83.97
2023-02-08T07:17:49.844Z,83.60
2023-02-08T07:20:17.466Z,83.76
2023-02-08T07:22:45.219Z,83.70
2023-02-08T07:25:13.200Z,83.66
2023-02-08T07:27:42.087Z,83.40
2023-02-08T07:30:09.830Z,83.34
2023-02-08T07:32:37.486Z,83.69
2023-02-08T07:35:05.572Z,83.07
2023-02-08T07:37:33.731Z,83.40
2023-02-08T07:40:01.662Z,83.81
2023-02-08T07:42:29.310Z,83.40
2023-02-08T07:44:57.185Z,83.85
2023-02-08T07:47:24.860Z,83.29
2023-02-08T07:49:52.857Z,83.48
2023-02-08T07:52:20.731Z,82.95
2023-02-08T07:54:48.492Z,83.04
2023-02-08T07:57:21.413Z,83.37
2023-02-08T07:59:49.212Z,82.78
2023-02-08T08:02:17.386Z,83.23
2023-02-08T08:04:45.482Z,83.14
2023-02-08T08:07:13.142Z,82.82
2023-02-08T08:09:40.890Z,82.39
2023-02-08T08:12:09.261Z,82.91
2023-02-08T08:14:37.390Z,82.45
2023-02-08T08:17:05.026Z,82.68
2023-02-08T08:19:32.903Z,82.19
2023-02-08T08:22:00.615Z,82.14
2023-02-08T08:24:28.300Z,81.79
2023-02-08T08:26:56.264Z,81.48
2023-02-08T08:29:24.293Z,81.63
2023-02-08T08:31:52.132Z,81.08
2023-02-08T08:34:20.610Z,81.65
2023-02-08T08:36:48.261Z,81.54
2023-02-08T08:39:16.371Z,81.28
2023-02-08T08:41:44.370Z,80.96
2023-02-08T08:44:12.115Z,80.73
2023-02-08T08:46:40.303Z,80.36
2023-02-08T08:49:08.358Z,80.10
2023-02-08T08:51:36.824Z,79.82
2023-02-08T08:54:04.907Z,79.23
2023-02-08T08:56:33.180Z,79.33
2023-02-08T08:59:00.991Z,79.25
2023-02-08T09:01:28.909Z,79.55
2023-02-08T09:03:57.115Z,78.80
2023-02-08T09:06:25.582Z,79.02
2023-02-08T09:08:53.580Z,79.52
2023-02-08T09:11:21.562Z,79.08
2023-02-08T09:13:53.121Z,79.14
2023-02-08T09:16:21.580Z,78.96
2023-02-08T09:18:50.907Z,79.44
2023-02-08T09:21:18.722Z,79.01
2023-02-08T09:23:47.820Z,79.66
2023-02-08T09:26:15.681Z,79.39
2023-02-08T09:28:43.624Z,78.88
2023-02-08T09:31:11.708Z,79.50
2023-02-08T09:33:39.798Z,79.12
2023-02-08T09:36:07.939Z,79.15
2023-02-08T09:38:35.967Z,78.78
2023-02-08T09:41:04.475Z,78.78
2023-02-08T09:43:32.565Z,78.74
2023-02-08T09:46:00.747Z,78.37
2023-02-08T09:48:28.652Z,78.71
2023-02-08T09:50:56.422Z,78.23
2023-02-08T09:53:24.699Z,78.13
2023-02-08T09:55:53.093Z,77.95
2023-02-08T09:58:20.944Z,78.02
2023-02-08T10:00:51.176Z,77.71
2023-02-08T10:03:19.135Z,77.17
2023-02-08T10:05:47.421Z,77.15
2023-02-08T10:08:15.828Z,77.13
2023-02-08T10:10:43.943Z,76.22
2023-02-08T10:13:14.100Z,75.71
2023-02-08T10:15:42.113Z,75.47
2023-02-08T10:18:10.390Z,74.11
2023-02-08T10:20:38.228Z,72.28
2023-02-08T10:23:06.529Z,70.05
2023-02-08T10:25:34.345Z,68.32
2023-02-08T10:28:02.219Z,66.47
2023-02-08T10:30:30.729Z,65.14
2023-02-08T10:32:58.973Z,64.00
2023-02-08T10:35:27.076Z,62.98
2023-02-08T10:37:56.871Z,62.12
2023-02-08T10:40:24.625Z,60.97
2023-02-08T10:42:53.081Z,60.43
2023-02-08T10:45:24.726Z,59.04
2023-02-08T10:47:52.960Z,59.09
2023-02-08T10:50:20.853Z,58.01
2023-02-08T10:52:49.448Z,58.08
2023-02-08T10:55:17.320Z,57.86
2023-02-08T10:57:46.249Z,57.67
2023-02-08T11:00:14.218Z,57.73
2023-02-08T11:02:41.994Z,57.81
2023-02-08T11:05:09.970Z,57.32
2023-02-08T11:07:38.632Z,57.44
2023-02-08T11:10:06.666Z,56.77
2023-02-08T11:12:34.602Z,57.01
2023-02-08T11:15:02.548Z,57.85
2023-02-08T11:17:30.373Z,58.72
2023-02-08T11:19:58.516Z,58.84
2023-02-08T11:22:26.604Z,58.65
2023-02-08T11:24:54.389Z,58.55
2023-02-08T11:27:22.401Z,57.36
2023-02-08T11:29:50.706Z,57.38
2023-02-08T11:32:19.144Z,56.83
2023-02-08T11:34:47.547Z,57.25
2023-02-08T11:37:15.366Z,57.01
2023-02-08T11:39:43.188Z,57.05
2023-02-08T11:42:11.120Z,57.90
2023-02-08T11:44:39.620Z,58.56
2023-02-08T11:47:07.751Z,59.35
2023-02-08T11:49:35.709Z,60.07
2023-02-08T11:52:04.049Z,60.35
2023-02-08T11:54:32.104Z,61.83
2023-02-08T11:57:00.359Z,61.74
2023-02-08T11:59:29.515Z,62.16
2023-02-08T12:01:57.622Z,62.18
2023-02-08T12:04:25.392Z,62.52
2023-02-08T12:06:53.538Z,62.72
2023-02-08T12:09:21.731Z,62.19
2023-02-08T12:11:50.261Z,62.84
2023-02-08T12:14:18.578Z,64.06
2023-02-08T12:16:46.369Z,64.26
2023-02-08T12:19:14.393Z,64.33
2023-02-08T12:21:42.842Z,64.24
2023-02-08T12:24:11.039Z,64.04
2023-02-08T12:26:38.769Z,63.94
2023-02-08T12:29:06.807Z,64.46
2023-02-08T12:31:34.605Z,64.15
2023-02-08T12:34:03.146Z,63.95
2023-02-08T12:36:32.735Z,63.88
2023-02-08T12:39:19.918Z,62.46
2023-02-08T12:41:48.788Z,61.87
2023-02-08T12:44:16.968Z,61.40
2023-02-08T12:46:45.409Z,61.72
2023-02-08T12:49:13.433Z,62.49
2023-02-08T12:51:41.363Z,62.98
2023-02-08T12:54:10.129Z,63.81
2023-02-08T12:56:38.957Z,63.77
2023-02-08T12:59:13.554Z,63.31
2023-02-08T13:01:42.112Z,63.41
2023-02-08T13:04:10.002Z,62.80
2023-02-08T13:06:38.283Z,63.50
2023-02-08T13:09:06.838Z,62.89
2023-02-08T13:11:35.703Z,62.94
2023-02-08T13:14:03.501Z,62.40
2023-02-08T13:16:31.429Z,61.82
2023-02-08T13:18:59.302Z,61.93
2023-02-08T13:21:27.662Z,62.93
2023-02-08T13:23:55.676Z,63.08
2023-02-08T13:26:26.501Z,63.40
2023-02-08T13:28:54.578Z,64.38
2023-02-08T13:31:22.879Z,64.52
2023-02-08T13:34:01.392Z,65.23
2023-02-08T13:36:30.313Z,64.64
2023-02-08T13:38:58.220Z,63.64
2023-02-08T13:41:26.162Z,63.24
2023-02-08T13:43:54.723Z,63.55
2023-02-08T13:46:22.637Z,63.19
2023-02-08T13:48:50.929Z,62.19
2023-02-08T13:51:18.773Z,62.15
2023-02-08T13:53:46.744Z,61.34
2023-02-08T13:56:14.992Z,61.10
2023-02-08T13:58:43.356Z,61.41
2023-02-08T14:01:11.281Z,61.78
2023-02-08T14:03:39.189Z,62.45
2023-02-08T14:06:07.212Z,62.64
2023-02-08T14:08:35.773Z,63.17
2023-02-08T14:11:03.786Z,62.98
2023-02-08T14:13:32.054Z,62.98
2023-02-08T14:15:59.894Z,62.61
2023-02-08T14:18:27.740Z,63.15
2023-02-08T14:20:56.378Z,63.63
2023-02-08T14:23:24.271Z,63.35
2023-02-08T14:25:52.383Z,63.82
2023-02-08T14:28:20.377Z,63.47
2023-02-08T14:30:48.425Z,63.23
2023-02-08T14:33:17.408Z,62.94
2023-02-08T14:35:45.651Z,62.02
2023-02-08T14:38:13.769Z,61.68
2023-02-08T14:40:41.761Z,62.34
2023-02-08T14:43:10.204Z,62.10
2023-02-08T14:45:38.410Z,62.65
2023-02-08T14:48:07.801Z,61.73
2023-02-08T14:50:36.096Z,61.40
2023-02-08T14:53:04.134Z,60.24
2023-02-08T14:55:31.992Z,59.80
2023-02-08T14:58:01.070Z,59.26
2023-02-08T15:00:31.229Z,58.16
2023-02-08T15:02:59.153Z,58.81
2023-02-08T15:05:27.162Z,58.56
2023-02-08T15:07:55.109Z,58.53
2023-02-08T15:10:23.512Z,58.44
2023-02-08T15:12:51.539Z,58.01
2023-02-08T15:15:19.501Z,58.99
2023-02-08T15:17:47.898Z,59.81
2023-02-08T15:20:15.799Z,60.46
2023-02-08T15:22:43.949Z,62.35
2023-02-08T15:25:11.879Z,64.22
2023-02-08T15:27:41.657Z,65.52
2023-02-08T15:30:09.493Z,66.38
2023-02-08T15:32:37.956Z,66.90
2023-02-08T15:35:06.096Z,67.67
2023-02-08T15:37:34.084Z,68.39
2023-02-08T15:40:02.953Z,68.74
2023-02-08T15:42:31.046Z,69.02
2023-02-08T15:45:00.892Z,69.50
2023-02-08T15:47:29.272Z,69.55
2023-02-08T15:49:58.163Z,69.63
2023-02-08T15:52:26.610Z,70.02
2023-02-08T15:54:54.574Z,70.03
2023-02-08T15:57:22.563Z,70.35
2023-02-08T15:59:50.377Z,70.48
2023-02-08T16:02:19.633Z,71.04
2023-02-08T16:04:47.889Z,71.33
2023-02-08T16:07:15.783Z,70.76
2023-02-08T16:09:43.657Z,71.26
2023-02-08T16:12:12.578Z,71.31
2023-02-08T16:14:51.917Z,71.45
2023-02-08T16:17:20.771Z,71.33
2023-02-08T16:19:48.546Z,71.63
2023-02-08T16:22:17.020Z,71.49
2023-02-08T16:24:47.278Z,72.25
2023-02-08T16:27:15.104Z,71.88
2023-02-08T16:29:43.540Z,72.41
2023-02-08T16:32:13.801Z,72.33
2023-02-08T16:34:42.240Z,72.77
2023-02-08T16:37:10.010Z,72.82
2023-02-08T16:39:39.523Z,72.65
2023-02-08T16:42:16.109Z,72.86
2023-02-08T16:44:44.629Z,72.73
2023-02-08T16:47:12.503Z,72.52
2023-02-08T16:49:40.308Z,72.66
2023-02-08T16:52:08.404Z,72.91
2023-02-08T16:54:36.276Z,73.26
2023-02-08T16:57:04.498Z,72.82
2023-02-08T16:59:32.658Z,73.40
2023-02-08T17:02:00.489Z,73.10
2023-02-08T17:04:30.893Z,73.58
2023-02-08T17:06:59.009Z,73.28
2023-02-08T17:09:27.219Z,73.58
2023-02-08T17:11:55.121Z,73.59
2023-02-08T17:14:23.417Z,73.51
2023-02-08T17:16:51.551Z,74.02
2023-02-08T17:19:19.447Z,73.30
2023-02-08T17:21:47.515Z,73.44
2023-02-08T17:24:15.325Z,73.29
2023-02-08T17:26:43.292Z,73.89
2023-02-08T17:29:11.498Z,73.54
2023-02-08T17:31:39.346Z,73.78
2023-02-08T17:34:07.519Z,73.97
2023-02-08T17:36:35.812Z,73.50
2023-02-08T17:39:03.890Z,74.37
2023-02-08T17:41:32.329Z,73.90
2023-02-08T17:44:00.288Z,74.42
2023-02-08T17:46:28.156Z,74.67
2023-02-08T17:48:56.132Z,74.82
2023-02-08T17:51:24.144Z,74.88
2023-02-08T17:53:52.080Z,74.61
2023-02-08T17:56:20.749Z,74.67
2023-02-08T17:58:51.428Z,74.52
2023-02-08T18:01:21.537Z,74.72
2023-02-08T18:03:49.563Z,74.16
2023-02-08T18:06:17.721Z,74.15
2023-02-08T18:08:45.477Z,74.27
2023-02-08T18:11:16.234Z,74.25
2023-02-08T18:13:44.184Z,74.80
2023-02-08T18:16:12.228Z,74.54
2023-02-08T18:18:40.264Z,73.99
2023-02-08T18:21:08.428Z,74.90
2023-02-08T18:23:36.555Z,75.09
2023-02-08T18:26:04.494Z,75.03
2023-02-08T18:28:32.382Z,74.71
2023-02-08T18:31:00.394Z,74.98
2023-02-08T18:33:28.344Z,75.30
2023-02-08T18:35:56.687Z,75.03
2023-02-08T18:38:24.414Z,74.86
2023-02-08T18:40:52.945Z,74.97
2023-02-08T18:43:21.662Z,75.19
2023-02-08T18:45:51.006Z,74.52
2023-02-08T18:48:19.767Z,74.93
2023-02-08T18:50:47.645Z,74.84
2023-02-08T18:53:15.488Z,74.99
2023-02-08T18:55:43.713Z,75.25
2023-02-08T18:58:11.681Z,75.33
2023-02-08T19:00:40.918Z,75.40
2023-02-08T19:03:10.326Z,74.58
2023-02-08T19:05:38.176Z,74.79
2023-02-08T19:08:06.254Z,75.24
2023-02-08T19:10:34.163Z,74.53
2023-02-08T19:13:02.072Z,74.49
2023-02-08T19:15:30.005Z,74.40
2023-02-08T19:17:59.417Z,74.70
2023-02-08T19:20:27.743Z,74.37
2023-02-08T19:22:55.545Z,74.62
2023-02-08T19:25:24.613Z,74.42
2023-02-08T19:27:52.857Z,74.15
2023-02-08T19:30:20.825Z,74.65
2023-02-08T19:32:48.997Z,74.32
2023-02-08T19:35:16.915Z,74.20
2023-02-08T19:37:47.743Z,74.20
2023-02-08T19:40:17.215Z,74.04
2023-02-08T19:42:45.180Z,73.55
2023-02-08T19:45:13.212Z,73.71
2023-02-08T19:47:51.107Z,73.59
2023-02-08T19:50:20.489Z,73.97
2023-02-08T19:52:48.400Z,73.42
2023-02-08T19:55:16.321Z,74.28
2023-02-08T19:57:44.221Z,73.82
2023-02-08T20:00:22.909Z,73.79
2023-02-08T20:02:52.077Z,73.86
2023-02-08T20:05:20.163Z,74.48
2023-02-08T20:07:48.020Z,74.33
2023-02-08T20:10:15.923Z,74.04
2023-02-08T20:12:43.933Z,73.97
2023-02-08T20:15:12.387Z,74.55
2023-02-08T20:17:41.378Z,73.76
2023-02-08T20:20:09.371Z,73.59
2023-02-08T20:22:37.249Z,73.50
2023-02-08T20:25:05.506Z,74.22
2023-02-08T20:27:33.557Z,74.34
2023-02-08T20:30:02.895Z,73.99
2023-02-08T20:32:30.995Z,74.25
2023-02-08T20:35:00.040Z,74.59
2023-02-08T20:37:27.982Z,73.88
2023-02-08T20:39:56.686Z,73.69
2023-02-08T20:42:24.717Z,73.64
2023-02-08T20:44:53.669Z,73.73
2023-02-08T20:47:22.063Z,73.68
2023-02-08T20:49:50.077Z,73.14
2023-02-08T20:52:19.465Z,73.62
2023-02-08T20:54:48.076Z,73.78
2023-02-08T20:57:16.128Z,73.50
2023-02-08T20:59:43.973Z,73.29
2023-02-08T21:02:11.857Z,74.00
2023-02-08T21:04:40.104Z,73.79
2023-02-08T21:07:08.205Z,73.44
2023-02-08T21:09:36.068Z,72.47
2023-02-08T21:12:04.016Z,72.94
2023-02-08T21:14:32.149Z,72.61
2023-02-08T21:17:00.462Z,71.77
2023-02-08T21:19:28.934Z,72.08
2023-02-08T21:21:56.809Z,72.13
2023-02-08T21:24:24.901Z,72.70
2023-02-08T21:26:52.946Z,72.51
2023-02-08T21:29:21.545Z,72.31
2023-02-08T21:31:51.987Z,72.63
2023-02-08T21:34:19.920Z,72.45
2023-02-08T21:36:48.224Z,71.92
2023-02-08T21:39:16.031Z,71.65
2023-02-08T21:41:44.353Z,71.51
2023-02-08T21:44:12.117Z,71.46
2023-02-08T21:46:40.044Z,70.83
2023-02-08T21:49:25.422Z,71.59
2023-02-08T21:52:10.487Z,71.67
2023-02-08T21:54:45.880Z,71.29
2023-02-08T21:57:14.099Z,71.26
2023-02-08T21:59:41.861Z,71.69
2023-02-08T22:02:09.723Z,72.03
2023-02-08T22:04:37.952Z,71.76
2023-02-08T22:07:05.991Z,71.73
2023-02-08T22:09:36.174Z,71.21
2023-02-08T22:12:03.975Z,71.30
2023-02-08T22:14:31.701Z,71.10
2023-02-08T22:17:00.049Z,71.16
2023-02-08T22:19:28.742Z,71.36
2023-02-08T22:21:56.477Z,71.06
2023-02-08T22:24:24.279Z,70.71
2023-02-08T22:26:51.956Z,71.72
2023-02-08T22:29:20.267Z,71.59
2023-02-08T22:31:48.320Z,70.93
2023-02-08T22:34:16.150Z,71.62
2023-02-08T22:36:43.886Z,71.82
2023-02-08T22:39:11.710Z,71.57
2023-02-08T22:41:40.013Z,71.52
2023-02-08T22:44:07.785Z,71.63
2023-02-08T22:46:35.638Z,72.03
2023-02-08T22:49:03.396Z,71.87
2023-02-08T22:51:31.076Z,72.06
2023-02-08T22:53:58.917Z,72.03
2023-02-08T22:56:27.126Z,72.12
2023-02-08T22:58:54.838Z,72.65
2023-02-08T23:01:22.684Z,72.19
2023-02-08T23:03:50.480Z,72.45
2023-02-08T23:06:18.546Z,72.80
2023-02-08T23:08:46.247Z,72.87
2023-02-08T23:11:13.894Z,73.14
2023-02-08T23:13:41.491Z,72.98
2023-02-08T23:16:09.236Z,72.98
2023-02-08T23:18:37.257Z,73.31
2023-02-08T23:21:05.160Z,73.36
2023-02-08T23:23:32.882Z,73.31
2023-02-08T23:26:00.852Z,73.22
2023-02-08T23:28:28.609Z,73.21
2023-02-08T23:30:56.748Z,73.15
2023-02-08T23:33:24.461Z,73.42
2023-02-08T23:35:52.123Z,73.12
2023-02-08T23:38:19.864Z,72.69
2023-02-08T23:40:47.594Z,73.17
2023-02-08T23:43:15.362Z,72.47
2023-02-08T23:45:43.243Z,73.10
2023-02-08T23:48:11.328Z,73.21
2023-02-08T23:50:39.146Z,72.69
2023-02-08T23:53:06.984Z,72.72
2023-02-08T23:55:35.014Z,72.58
2023-02-08T23:58:02.986Z,72.77
